createdAt,value
2022-10-01T00:01:19.290Z,100257.25
2022-10-01T00:03:48.658Z,100258.22
2022-10-01T00:06:20.086Z,100257.25
2022-10-01T00:08:51.024Z,100249.16
2022-10-01T00:11:22.692Z,100253.69
2022-10-01T00:13:53.687Z,100246.59
2022-10-01T00:16:24.129Z,100241.19
2022-10-01T00:18:54.026Z,100251.13
2022-10-01T00:21:25.522Z,100232.34
2022-10-01T00:23:56.870Z,100234.94
2022-10-01T00:26:28.275Z,100238.59
2022-10-01T00:28:59.656Z,100222.53
2022-10-01T00:31:28.432Z,100224.28
2022-10-01T00:33:59.018Z,100218.97
2022-10-01T00:36:28.232Z,100217.25
2022-10-01T00:38:58.634Z,100216.28
2022-10-01T00:41:27.718Z,100212.72
2022-10-01T00:44:01.458Z,100210.03
2022-10-01T00:46:39.980Z,100209.16
2022-10-01T00:49:15.088Z,100206.47
2022-10-01T00:51:48.031Z,100202.91
2022-10-01T00:54:22.715Z,100192.97
2022-10-01T00:56:54.639Z,100193.97
2022-10-01T00:59:24.448Z,100184.91
2022-10-01T01:01:53.386Z,100178.66
2022-10-01T01:04:21.631Z,100168.84
2022-10-01T01:06:55.869Z,100172.50
2022-10-01T01:09:27.463Z,100172.50
2022-10-01T01:12:07.259Z,100161.84
2022-10-01T01:14:48.932Z,100152.91
2022-10-01T01:17:26.293Z,100162.72
2022-10-01T01:20:12.882Z,100170.78
2022-10-01T01:22:49.272Z,100157.22
2022-10-01T01:25:23.075Z,100147.28
2022-10-01T01:28:08.423Z,100149.00
2022-10-01T01:30:38.994Z,100138.09
2022-10-01T01:33:14.634Z,100138.09
2022-10-01T01:35:47.908Z,100135.41
2022-10-01T01:38:20.366Z,100131.66
2022-10-01T01:40:51.579Z,100125.28
2022-10-01T01:43:27.440Z,100129.72
2022-10-01T01:45:56.033Z,100132.28
2022-10-01T01:48:25.194Z,100119.56
2022-10-01T01:50:58.916Z,100101.53
2022-10-01T01:53:27.822Z,100105.97
2022-10-01T01:55:56.919Z,100097.75
2022-10-01T01:58:27.859Z,100091.38
2022-10-01T02:00:56.363Z,100095.81
2022-10-01T02:03:29.166Z,100079.53
2022-10-01T02:06:02.822Z,100077.91
2022-10-01T02:08:41.050Z,100079.63
2022-10-01T02:11:28.314Z,100072.50
2022-10-01T02:14:11.610Z,100065.19
2022-10-01T02:16:49.261Z,100058.84
2022-10-01T02:19:27.384Z,100052.34
2022-10-01T02:22:02.010Z,100042.53
2022-10-01T02:24:40.835Z,100050.50
2022-10-01T02:27:16.756Z,100047.69
2022-10-01T02:29:47.210Z,100031.41
2022-10-01T02:32:17.717Z,100024.16
2022-10-01T02:34:49.340Z,100028.47
2022-10-01T02:37:19.033Z,100019.50
2022-10-01T02:39:49.679Z,100017.56
2022-10-01T02:42:20.984Z,100009.47
2022-10-01T02:44:53.292Z,100014.00
2022-10-01T02:47:26.002Z,99997.81
2022-10-01T02:49:55.428Z,99997.81
2022-10-01T02:52:34.055Z,99988.78
2022-10-01T02:55:09.593Z,99993.19
2022-10-01T02:57:37.157Z,99996.63
2022-10-01T03:00:10.221Z,99994.78
2022-10-01T03:02:38.504Z,100000.06
2022-10-01T03:05:08.415Z,99993.69
2022-10-01T03:07:37.124Z,99990.03
2022-10-01T03:10:06.656Z,99990.88
2022-10-01T03:12:35.337Z,99988.06
2022-10-01T03:15:03.840Z,99983.53
2022-10-01T03:17:33.362Z,99984.38
2022-10-01T03:20:01.831Z,99987.81
2022-10-01T03:22:30.081Z,99974.25
2022-10-01T03:24:58.324Z,99979.50
2022-10-01T03:27:26.624Z,99974.97
2022-10-01T03:29:54.848Z,99981.09
2022-10-01T03:32:23.283Z,99968.47
2022-10-01T03:34:52.788Z,99970.19
2022-10-01T03:37:20.988Z,99969.22
2022-10-01T03:39:49.175Z,99960.25
2022-10-01T03:42:17.543Z,99954.75
2022-10-01T03:44:46.103Z,99956.47
2022-10-01T03:47:14.293Z,99959.16
2022-10-01T03:49:42.879Z,99955.59
2022-10-01T03:52:12.628Z,99950.34
2022-10-01T03:54:40.826Z,99951.19
2022-10-01T03:57:08.997Z,99939.53
2022-10-01T03:59:37.213Z,99949.34
2022-10-01T04:02:05.745Z,99945.81
2022-10-01T04:04:34.024Z,99942.25
2022-10-01T04:07:02.225Z,99941.38
2022-10-01T04:09:31.807Z,99940.53
2022-10-01T04:12:00.288Z,99938.81
2022-10-01T04:14:28.445Z,99930.72
2022-10-01T04:16:56.652Z,99930.72
2022-10-01T04:19:24.824Z,99927.16
2022-10-01T04:21:53.005Z,99930.00
2022-10-01T04:24:21.164Z,99931.69
2022-10-01T04:26:52.280Z,99924.59
2022-10-01T04:29:20.453Z,99921.91
2022-10-01T04:31:48.680Z,99920.19
2022-10-01T04:34:16.897Z,99918.47
2022-10-01T04:36:45.058Z,99922.16
2022-10-01T04:39:13.203Z,99920.41
2022-10-01T04:41:41.373Z,99915.38
2022-10-01T04:44:10.932Z,99912.19
2022-10-01T04:46:39.128Z,99903.59
2022-10-01T04:49:07.498Z,99901.25
2022-10-01T04:51:35.943Z,99893.53
2022-10-01T04:54:04.473Z,99893.88
2022-10-01T04:56:32.629Z,99884.44
2022-10-01T04:59:00.981Z,99879.38
2022-10-01T05:01:31.173Z,99873.50
2022-10-01T05:03:59.631Z,99876.44
2022-10-01T05:06:27.810Z,99865.91
2022-10-01T05:08:55.982Z,99859.75
2022-10-01T05:11:24.127Z,99846.53
2022-10-01T05:13:52.451Z,99841.38
2022-10-01T05:16:20.678Z,99836.97
2022-10-01T05:18:50.442Z,99825.47
2022-10-01T05:21:19.436Z,99823.00
2022-10-01T05:23:47.781Z,99817.72
2022-10-01T05:26:16.015Z,99810.63
2022-10-01T05:28:44.636Z,99809.03
2022-10-01T05:31:14.100Z,99804.63
2022-10-01T05:33:42.521Z,99801.06
2022-10-01T05:36:12.107Z,99790.38
2022-10-01T05:38:40.287Z,99793.06
2022-10-01T05:41:08.528Z,99786.72
2022-10-01T05:43:36.901Z,99780.47
2022-10-01T05:46:06.840Z,99784.03
2022-10-01T05:48:37.689Z,99780.47
2022-10-01T05:51:08.534Z,99775.09
2022-10-01T05:53:38.773Z,99776.06
2022-10-01T05:56:08.228Z,99767.13
2022-10-01T05:58:37.156Z,99765.41
2022-10-01T06:01:05.836Z,99760.03
2022-10-01T06:03:34.108Z,99760.25
2022-10-01T06:06:02.297Z,99754.97
2022-10-01T06:08:30.512Z,99744.31
2022-10-01T06:11:03.609Z,99753.25
2022-10-01T06:13:32.206Z,99744.31
2022-10-01T06:16:00.413Z,99736.97
2022-10-01T06:18:28.688Z,99739.56
2022-10-01T06:20:59.231Z,99735.03
2022-10-01T06:23:27.461Z,99731.38
2022-10-01T06:25:55.684Z,99729.41
2022-10-01T06:28:25.317Z,99729.63
2022-10-01T06:30:53.552Z,99720.81
2022-10-01T06:33:21.867Z,99721.81
2022-10-01T06:35:52.453Z,99723.63
2022-10-01T06:38:23.559Z,99722.78
2022-10-01T06:40:56.065Z,99718.38
2022-10-01T06:43:27.441Z,99722.06
2022-10-01T06:45:56.401Z,99712.25
2022-10-01T06:48:24.739Z,99716.91
2022-10-01T06:50:53.198Z,99700.03
2022-10-01T06:53:20.431Z,99703.66
2022-10-01T06:55:49.890Z,99701.94
2022-10-01T06:58:21.037Z,99698.53
2022-10-01T07:00:51.788Z,99691.44
2022-10-01T07:03:22.455Z,99694.13
2022-10-01T07:05:51.224Z,99686.91
2022-10-01T07:08:19.824Z,99668.06
2022-10-01T07:10:48.038Z,99676.97
2022-10-01T07:13:20.226Z,99684.94
2022-10-01T07:15:49.806Z,99676.13
2022-10-01T07:18:18.063Z,99665.34
2022-10-01T07:20:46.323Z,99674.41
2022-10-01T07:23:16.811Z,99656.56
2022-10-01T07:25:45.964Z,99660.09
2022-10-01T07:28:18.338Z,99658.25
2022-10-01T07:30:59.350Z,99661.94
2022-10-01T07:33:27.592Z,99657.41
2022-10-01T07:35:55.936Z,99656.44
2022-10-01T07:38:24.131Z,99658.00
2022-10-01T07:40:54.659Z,99648.09
2022-10-01T07:43:23.091Z,99647.13
2022-10-01T07:45:55.170Z,99648.75
2022-10-01T07:48:23.552Z,99654.00
2022-10-01T07:50:52.322Z,99643.97
2022-10-01T07:53:21.090Z,99640.41
2022-10-01T07:55:49.284Z,99633.19
2022-10-01T07:58:18.739Z,99628.66
2022-10-01T08:00:47.054Z,99630.38
2022-10-01T08:03:16.675Z,99632.81
2022-10-01T08:05:46.433Z,99623.66
2022-10-01T08:08:14.621Z,99649.59
2022-10-01T08:10:42.868Z,99632.47
2022-10-01T08:13:15.352Z,99627.94
2022-10-01T08:15:45.031Z,99626.84
2022-10-01T08:18:13.672Z,99607.03
2022-10-01T08:20:43.374Z,99615.81
2022-10-01T08:23:14.219Z,99613.84
2022-10-01T08:25:43.800Z,99608.47
2022-10-01T08:28:13.177Z,99611.91
2022-10-01T08:30:43.381Z,99606.41
2022-10-01T08:33:13.502Z,99608.00
2022-10-01T08:35:44.393Z,99603.34
2022-10-01T08:38:13.411Z,99600.50
2022-10-01T08:40:47.285Z,99612.16
2022-10-01T08:43:31.821Z,99607.50
2022-10-01T08:46:05.127Z,99599.41
2022-10-01T08:48:57.168Z,99596.47
2022-10-01T08:51:33.745Z,99604.19
2022-10-01T08:54:11.204Z,99591.56
2022-10-01T08:56:45.275Z,99595.72
2022-10-01T08:59:30.765Z,99597.41
2022-10-01T09:02:00.024Z,99597.06
2022-10-01T09:04:28.971Z,99592.41
2022-10-01T09:07:05.323Z,99582.34
2022-10-01T09:09:46.475Z,99589.31
2022-10-01T09:12:30.948Z,99584.66
2022-10-01T09:15:19.232Z,99584.56
2022-10-01T09:18:03.576Z,99587.84
2022-10-01T09:20:37.589Z,99579.50
2022-10-01T09:23:25.717Z,99580.34
2022-10-01T09:25:53.875Z,99585.59
2022-10-01T09:28:25.067Z,99590.00
2022-10-01T09:31:04.584Z,99583.41
2022-10-01T09:33:36.222Z,99592.94
2022-10-01T09:36:16.869Z,99584.59
2022-10-01T09:38:53.639Z,99586.03
2022-10-01T09:41:22.610Z,99584.09
2022-10-01T09:43:50.880Z,99582.00
2022-10-01T09:46:20.139Z,99581.72
2022-10-01T09:49:00.238Z,99584.28
2022-10-01T09:51:40.038Z,99576.69
2022-10-01T09:54:19.070Z,99570.16
2022-10-01T09:56:52.192Z,99582.13
2022-10-01T09:59:28.027Z,99576.38
2022-10-01T10:02:00.072Z,99576.22
2022-10-01T10:04:28.681Z,99573.41
2022-10-01T10:07:03.911Z,99572.28
2022-10-01T10:09:36.628Z,99574.84
2022-10-01T10:12:10.521Z,99574.59
2022-10-01T10:14:41.332Z,99577.03
2022-10-01T10:17:16.692Z,99569.66
2022-10-01T10:19:51.703Z,99573.06
2022-10-01T10:22:25.134Z,99575.50
2022-10-01T10:24:58.480Z,99584.06
2022-10-01T10:27:30.348Z,99589.06
2022-10-01T10:30:08.761Z,99582.41
2022-10-01T10:32:37.436Z,99583.47
2022-10-01T10:35:13.330Z,99576.28
2022-10-01T10:37:49.934Z,99591.97
2022-10-01T10:40:29.098Z,99599.69
2022-10-01T10:43:00.134Z,99598.44
2022-10-01T10:45:34.421Z,99596.06
2022-10-01T10:48:05.241Z,99591.44
2022-10-01T10:50:38.311Z,99582.81
2022-10-01T10:53:24.220Z,99586.13
2022-10-01T10:56:01.169Z,99583.91
2022-10-01T10:58:31.577Z,99582.78
2022-10-01T11:01:06.147Z,99581.41
2022-10-01T11:03:37.906Z,99587.78
2022-10-01T11:06:13.256Z,99572.56
2022-10-01T11:08:41.978Z,99572.75
2022-10-01T11:11:31.009Z,99575.88
2022-10-01T11:14:26.696Z,99572.00
2022-10-01T11:17:12.977Z,99568.66
2022-10-01T11:20:00.145Z,99560.00
2022-10-01T11:22:52.545Z,99567.75
2022-10-01T11:25:35.095Z,99570.13
2022-10-01T11:28:19.595Z,99559.78
2022-10-01T11:31:00.261Z,99561.38
2022-10-01T11:33:44.879Z,99567.88
2022-10-01T11:36:25.228Z,99567.75
2022-10-01T11:39:00.423Z,99561.91
2022-10-01T11:41:35.893Z,99569.34
2022-10-01T11:44:12.526Z,99564.63
2022-10-01T11:46:54.446Z,99565.25
2022-10-01T11:49:54.654Z,99556.56
2022-10-01T11:52:34.429Z,99566.72
2022-10-01T11:55:32.742Z,99568.50
2022-10-01T11:58:26.383Z,99562.13
2022-10-01T12:01:05.049Z,99567.47
2022-10-01T12:03:46.761Z,99559.63
2022-10-01T12:06:16.801Z,99554.56
2022-10-01T12:08:54.886Z,99563.22
2022-10-01T12:11:29.289Z,99565.72
2022-10-01T12:14:06.367Z,99580.09
2022-10-01T12:16:45.947Z,99583.00
2022-10-01T12:19:21.527Z,99586.72
2022-10-01T12:21:56.715Z,99593.44
2022-10-01T12:24:31.312Z,99594.19
2022-10-01T12:27:15.600Z,99592.56
2022-10-01T12:29:50.478Z,99598.19
2022-10-01T12:32:32.917Z,99594.66
2022-10-01T12:35:20.531Z,99608.63
2022-10-01T12:38:09.967Z,99611.00
2022-10-01T12:40:47.524Z,99616.94
2022-10-01T12:43:47.415Z,99618.66
2022-10-01T12:46:32.409Z,99628.03
2022-10-01T12:49:11.762Z,99618.00
2022-10-01T12:51:44.642Z,99638.28
2022-10-01T12:54:46.169Z,99629.63
2022-10-01T12:57:33.127Z,99627.00
2022-10-01T13:00:11.641Z,99641.66
2022-10-01T13:03:18.347Z,99640.25
2022-10-01T13:06:02.328Z,99645.34
2022-10-01T13:08:48.299Z,99655.59
2022-10-01T13:11:35.115Z,99652.53
2022-10-01T13:14:04.400Z,99658.03
2022-10-01T13:16:39.792Z,99658.03
2022-10-01T13:19:17.329Z,99663.31
2022-10-01T13:22:07.676Z,99663.97
2022-10-01T13:24:44.610Z,99669.53
2022-10-01T13:27:19.294Z,99671.72
2022-10-01T13:29:57.272Z,99671.97
2022-10-01T13:32:30.795Z,99689.44
2022-10-01T13:35:03.544Z,99694.75
2022-10-01T13:37:41.298Z,99704.34
2022-10-01T13:40:28.867Z,99719.38
2022-10-01T13:43:01.035Z,99731.22
2022-10-01T13:45:40.267Z,99746.44
2022-10-01T13:48:20.224Z,99753.47
2022-10-01T13:50:59.200Z,99749.50
2022-10-01T13:53:29.764Z,99766.03
2022-10-01T13:55:58.848Z,99758.72
2022-10-01T13:58:38.649Z,99743.81
2022-10-01T14:01:37.763Z,99759.44
2022-10-01T14:04:17.603Z,99759.31
2022-10-01T14:06:52.772Z,99767.94
2022-10-01T14:09:27.272Z,99770.94
2022-10-01T14:12:20.046Z,99763.50
2022-10-01T14:15:13.718Z,99764.22
2022-10-01T14:17:44.759Z,99773.34
2022-10-01T14:20:19.273Z,99775.22
2022-10-01T14:23:05.771Z,99772.81
2022-10-01T14:25:53.516Z,99779.41
2022-10-01T14:28:48.716Z,99779.41
2022-10-01T14:31:28.020Z,99785.78
2022-10-01T14:34:36.931Z,99788.81
2022-10-01T14:37:08.509Z,99785.56
2022-10-01T14:39:36.765Z,99786.72
2022-10-01T14:42:16.987Z,99791.84
2022-10-01T14:44:47.844Z,99802.94
2022-10-01T14:47:22.102Z,99810.81
2022-10-01T14:49:52.214Z,99812.66
2022-10-01T14:52:25.488Z,99822.94
2022-10-01T14:55:05.954Z,99813.69
2022-10-01T14:57:39.154Z,99817.13
2022-10-01T15:00:14.528Z,99812.16
2022-10-01T15:02:47.368Z,99815.16
2022-10-01T15:05:28.251Z,99811.88
2022-10-01T15:07:56.446Z,99831.59
2022-10-01T15:10:28.897Z,99819.00
2022-10-01T15:12:58.542Z,99830.16
2022-10-01T15:15:32.122Z,99825.88
2022-10-01T15:18:00.758Z,99836.16
2022-10-01T15:20:29.058Z,99837.44
2022-10-01T15:23:01.187Z,99840.56
2022-10-01T15:25:32.711Z,99837.69
2022-10-01T15:28:02.712Z,99845.84
2022-10-01T15:30:30.951Z,99849.56
2022-10-01T15:32:59.427Z,99861.53
2022-10-01T15:35:28.580Z,99861.84
2022-10-01T15:38:00.539Z,99859.13
2022-10-01T15:40:35.404Z,99870.13
2022-10-01T15:43:27.976Z,99874.09
2022-10-01T15:46:21.100Z,99873.13
2022-10-01T15:48:49.256Z,99875.09
2022-10-01T15:51:24.504Z,99873.69
2022-10-01T15:53:53.852Z,99883.22
2022-10-01T15:56:25.875Z,99882.94
2022-10-01T15:59:00.399Z,99882.69
2022-10-01T16:01:39.354Z,99885.09
2022-10-01T16:04:11.753Z,99899.38
2022-10-01T16:06:44.215Z,99902.22
2022-10-01T16:09:19.184Z,99910.22
2022-10-01T16:11:56.662Z,99912.91
2022-10-01T16:14:39.356Z,99924.06
2022-10-01T16:17:37.917Z,99920.63
2022-10-01T16:20:50.475Z,99915.63
2022-10-01T16:23:42.627Z,99929.47
2022-10-01T16:26:46.669Z,99937.03
2022-10-01T16:29:26.715Z,99952.59
2022-10-01T16:31:57.676Z,99953.56
2022-10-01T16:34:28.304Z,99964.69
2022-10-01T16:36:56.493Z,99970.25
2022-10-01T16:39:25.103Z,99971.41
2022-10-01T16:42:19.100Z,99978.66
2022-10-01T16:44:43.299Z,99982.53
2022-10-01T16:47:13.478Z,99980.81
2022-10-01T16:49:42.105Z,99988.09
2022-10-01T16:52:16.511Z,99990.81
2022-10-01T16:54:47.444Z,99993.38
2022-10-01T16:57:17.596Z,99993.38
2022-10-01T16:59:45.791Z,100000.66
2022-10-01T17:02:16.134Z,100014.19
2022-10-01T17:04:44.352Z,100004.75
2022-10-01T17:07:12.569Z,100010.72
2022-10-01T17:09:41.067Z,100025.81
2022-10-01T17:12:10.253Z,100026.38
2022-10-01T17:14:38.424Z,100036.88
2022-10-01T17:17:07.050Z,100038.28
2022-10-01T17:19:36.589Z,100051.22
2022-10-01T17:22:04.766Z,100047.94
2022-10-01T17:24:32.969Z,100056.47
2022-10-01T17:27:01.271Z,100056.84
2022-10-01T17:29:30.889Z,100057.28
2022-10-01T17:31:59.157Z,100062.38
2022-10-01T17:34:27.727Z,100078.28
2022-10-01T17:36:59.800Z,100075.97
2022-10-01T17:39:28.095Z,100088.16
2022-10-01T17:41:56.245Z,100085.88
2022-10-01T17:44:24.530Z,100089.84
2022-10-01T17:46:52.688Z,100095.72
2022-10-01T17:49:21.590Z,100098.97
2022-10-01T17:51:50.583Z,100108.44
2022-10-01T17:54:21.064Z,100107.13
2022-10-01T17:56:49.777Z,100117.44
2022-10-01T17:59:19.051Z,100123.38
2022-10-01T18:01:47.297Z,100128.44
2022-10-01T18:04:15.853Z,100128.09
2022-10-01T18:06:44.021Z,100133.00
2022-10-01T18:09:12.205Z,100134.38
2022-10-01T18:11:41.813Z,100142.88
2022-10-01T18:14:10.005Z,100148.66
2022-10-01T18:16:39.436Z,100152.72
2022-10-01T18:21:58.818Z,100162.41
2022-10-01T18:24:27.103Z,100168.94
2022-10-01T18:26:57.518Z,100171.91
2022-10-01T18:29:28.250Z,100171.16
2022-10-01T18:32:02.330Z,100171.38
2022-10-01T18:34:38.043Z,100185.16
2022-10-01T18:37:13.526Z,100189.94
2022-10-01T18:39:45.544Z,100192.00
2022-10-01T18:42:23.435Z,100195.81
2022-10-01T18:44:56.393Z,100202.81
2022-10-01T18:47:39.467Z,100205.91
2022-10-01T18:50:23.095Z,100202.94
2022-10-01T18:53:07.877Z,100206.53
2022-10-01T18:56:24.928Z,100214.84
2022-10-01T18:59:42.479Z,100222.34
2022-10-01T19:02:30.899Z,100221.59
2022-10-01T19:05:50.772Z,100222.06
2022-10-01T19:08:38.467Z,100229.44
2022-10-01T19:11:19.119Z,100231.50
2022-10-01T19:13:58.767Z,100231.03
2022-10-01T19:16:42.963Z,100231.19
2022-10-01T19:19:29.346Z,100240.53
2022-10-01T19:22:03.812Z,100248.75
2022-10-01T19:24:57.832Z,100254.38
2022-10-01T19:27:44.851Z,100258.06
2022-10-01T19:30:15.527Z,100258.94
2022-10-01T19:32:50.834Z,100260.84
2022-10-01T19:35:22.435Z,100264.41
2022-10-01T19:37:56.041Z,100262.81
2022-10-01T19:40:32.652Z,100264.78
2022-10-01T19:43:11.031Z,100261.47
2022-10-01T19:45:51.193Z,100261.69
2022-10-01T19:48:27.390Z,100273.44
2022-10-01T19:51:08.837Z,100276.25
2022-10-01T19:53:38.432Z,100277.25
2022-10-01T19:56:08.350Z,100277.34
2022-10-01T19:58:36.511Z,100274.78
2022-10-01T20:01:05.515Z,100270.34
2022-10-01T20:03:39.529Z,100278.47
2022-10-01T20:06:17.229Z,100286.56
2022-10-01T20:08:52.632Z,100287.41
2022-10-01T20:11:28.872Z,100289.88
2022-10-01T20:14:12.977Z,100293.31
2022-10-01T20:16:47.210Z,100289.31
2022-10-01T20:19:27.178Z,100303.44
2022-10-01T20:22:06.216Z,100299.50
2022-10-01T20:24:47.842Z,100316.25
2022-10-01T20:27:30.328Z,100314.06
2022-10-01T20:30:06.472Z,100319.16
2022-10-01T20:32:42.659Z,100326.91
2022-10-01T20:35:24.566Z,100331.22
2022-10-01T20:38:03.941Z,100333.66
2022-10-01T20:40:40.295Z,100338.00
2022-10-01T20:43:16.314Z,100343.41
2022-10-01T20:45:49.520Z,100339.84
2022-10-01T20:48:23.305Z,100346.19
2022-10-01T20:50:58.434Z,100349.88
2022-10-01T20:53:35.817Z,100350.97
2022-10-01T20:56:12.951Z,100354.53
2022-10-01T20:58:45.880Z,100359.19
2022-10-01T21:01:20.564Z,100359.44
2022-10-01T21:03:54.861Z,100364.09
2022-10-01T21:06:33.339Z,100374.16
2022-10-01T21:09:12.426Z,100368.84
2022-10-01T21:11:46.481Z,100382.44
2022-10-01T21:14:21.757Z,100385.91
2022-10-01T21:17:19.902Z,100385.91
2022-10-01T21:20:43.507Z,100381.47
2022-10-01T21:23:30.659Z,100378.13
2022-10-01T21:26:12.183Z,100375.66
2022-10-01T21:29:11.307Z,100378.81
2022-10-01T21:31:55.035Z,100384.56
2022-10-01T21:34:30.977Z,100394.84
2022-10-01T21:37:09.627Z,100399.69
2022-10-01T21:39:48.566Z,100399.19
2022-10-01T21:42:22.196Z,100394.00
2022-10-01T21:45:23.271Z,100404.25
2022-10-01T21:48:16.332Z,100407.41
2022-10-01T21:50:54.088Z,100409.38
2022-10-01T21:54:11.861Z,100418.75
2022-10-01T21:57:03.241Z,100423.28
2022-10-01T22:00:17.918Z,100437.75
2022-10-01T22:03:08.685Z,100435.06
2022-10-01T22:05:44.776Z,100437.88
2022-10-01T22:08:28.621Z,100438.97
2022-10-01T22:11:01.667Z,100439.16
2022-10-01T22:13:35.700Z,100436.69
2022-10-01T22:16:11.288Z,100441.31
2022-10-01T22:18:45.588Z,100445.09
2022-10-01T22:21:18.399Z,100439.81
2022-10-01T22:23:52.520Z,100447.34
2022-10-01T22:26:25.389Z,100444.66
2022-10-01T22:28:55.605Z,100451.25
2022-10-01T22:31:30.197Z,100456.53
2022-10-01T22:34:02.658Z,100455.66
2022-10-01T22:36:38.777Z,100456.41
2022-10-01T22:39:14.778Z,100463.66
2022-10-01T22:41:48.317Z,100460.97
2022-10-01T22:44:20.843Z,100466.25
2022-10-01T22:47:17.354Z,100466.56
2022-10-01T22:50:20.366Z,100476.50
2022-10-01T22:53:04.894Z,100471.97
2022-10-01T22:55:47.867Z,100463.88
2022-10-01T22:58:58.546Z,100462.03
2022-10-01T23:01:37.962Z,100473.47
2022-10-01T23:04:23.700Z,100474.34
2022-10-01T23:07:03.832Z,100475.88
2022-10-01T23:09:41.573Z,100472.19
2022-10-01T23:12:21.754Z,100471.22
2022-10-01T23:15:05.066Z,100465.81
2022-10-01T23:17:41.162Z,100471.97
2022-10-01T23:20:23.216Z,100473.69
2022-10-01T23:23:14.079Z,100481.56
2022-10-01T23:26:02.167Z,100480.59
2022-10-01T23:28:41.646Z,100473.25
2022-10-01T23:31:21.439Z,100486.75
2022-10-01T23:34:25.062Z,100493.09
2022-10-01T23:37:02.498Z,100485.13
2022-10-01T23:39:51.054Z,100496.59
2022-10-01T23:42:31.372Z,100498.31
2022-10-01T23:45:22.980Z,100511.81
2022-10-01T23:48:01.155Z,100511.91
2022-10-01T23:50:38.505Z,100513.63
2022-10-01T23:53:15.695Z,100519.91
2022-10-01T23:56:10.809Z,100521.63
2022-10-01T23:58:47.362Z,100516.22
